sensor_id;sensor_type;location;lat;lon;timestamp;P1;durP1;ratioP1;P2;durP2;ratioP2
5867;SDS011;2960;49.142;7.768;2023-10-13T00:01:46;14.33;;;5.87;;
5867;SDS011;2960;49.142;7.768;2023-10-13T00:04:17;14.20;;;5.80;;
5867;SDS011;2960;49.142;7.768;2023-10-13T00:06:48;12.30;;;5.40;;
5867;SDS011;2960;49.142;7.768;2023-10-13T00:09:15;17.30;;;6.10;;
5867;SDS011;2960;49.142;7.768;2023-10-13T00:11:50;12.13;;;5.57;;
5867;SDS011;2960;49.142;7.768;2023-10-13T00:14:20;13.47;;;6.10;;
5867;SDS011;2960;49.142;7.768;2023-10-13T00:16:47;13.20;;;6.33;;
5867;SDS011;2960;49.142;7.768;2023-10-13T00:19:28;13.00;;;5.97;;
5867;SDS011;2960;49.142;7.768;2023-10-13T00:22:03;12.77;;;5.70;;
5867;SDS011;2960;49.142;7.768;2023-10-13T00:24:38;12.13;;;5.50;;
5867;SDS011;2960;49.142;7.768;2023-10-13T00:27:11;12.70;;;6.03;;
5867;SDS011;2960;49.142;7.768;2023-10-13T00:29:55;12.93;;;6.17;;
5867;SDS011;2960;49.142;7.768;2023-10-13T00:32:46;13.40;;;5.70;;
5867;SDS011;2960;49.142;7.768;2023-10-13T00:35:19;13.73;;;5.70;;
5867;SDS011;2960;49.142;7.768;2023-10-13T00:37:50;12.97;;;6.03;;
5867;SDS011;2960;49.142;7.768;2023-10-13T00:40:19;15.77;;;6.40;;
5867;SDS011;2960;49.142;7.768;2023-10-13T00:43:06;14.43;;;6.03;;
5867;SDS011;2960;49.142;7.768;2023-10-13T00:45:50;13.13;;;6.13;;
5867;SDS011;2960;49.142;7.768;2023-10-13T00:48:22;13.27;;;6.07;;
5867;SDS011;2960;49.142;7.768;2023-10-13T00:50:55;12.37;;;5.90;;
5867;SDS011;2960;49.142;7.768;2023-10-13T00:53:28;12.13;;;5.80;;
5867;SDS011;2960;49.142;7.768;2023-10-13T00:55:58;12.63;;;6.00;;
5867;SDS011;2960;49.142;7.768;2023-10-13T00:58:31;12.83;;;6.10;;
5867;SDS011;2960;49.142;7.768;2023-10-13T01:01:00;12.47;;;5.80;;
5867;SDS011;2960;49.142;7.768;2023-10-13T01:03:42;12.80;;;5.83;;
5867;SDS011;2960;49.142;7.768;2023-10-13T01:06:13;12.87;;;6.07;;
5867;SDS011;2960;49.142;7.768;2023-10-13T01:08:42;14.50;;;6.40;;
5867;SDS011;2960;49.142;7.768;2023-10-13T01:11:15;13.07;;;5.90;;
5867;SDS011;2960;49.142;7.768;2023-10-13T01:13:44;12.50;;;6.10;;
5867;SDS011;2960;49.142;7.768;2023-10-13T01:16:17;14.20;;;6.47;;
5867;SDS011;2960;49.142;7.768;2023-10-13T01:18:48;13.30;;;5.70;;
5867;SDS011;2960;49.142;7.768;2023-10-13T01:21:15;12.83;;;5.80;;
5867;SDS011;2960;49.142;7.768;2023-10-13T01:23:46;12.10;;;5.77;;
5867;SDS011;2960;49.142;7.768;2023-10-13T01:26:15;14.90;;;6.10;;
5867;SDS011;2960;49.142;7.768;2023-10-13T01:28:46;13.90;;;5.60;;
5867;SDS011;2960;49.142;7.768;2023-10-13T01:31:15;12.40;;;6.00;;
5867;SDS011;2960;49.142;7.768;2023-10-13T01:33:50;13.27;;;6.10;;
5867;SDS011;2960;49.142;7.768;2023-10-13T01:36:20;12.90;;;6.00;;
5867;SDS011;2960;49.142;7.768;2023-10-13T01:38:48;12.20;;;5.83;;
5867;SDS011;2960;49.142;7.768;2023-10-13T01:41:16;13.20;;;6.03;;
5867;SDS011;2960;49.142;7.768;2023-10-13T01:43:44;12.57;;;6.27;;
5867;SDS011;2960;49.142;7.768;2023-10-13T01:46:11;12.93;;;6.27;;
5867;SDS011;2960;49.142;7.768;2023-10-13T01:48:40;12.50;;;5.97;;
5867;SDS011;2960;49.142;7.768;2023-10-13T01:51:09;15.23;;;6.00;;
5867;SDS011;2960;49.142;7.768;2023-10-13T01:53:36;14.50;;;6.60;;
5867;SDS011;2960;49.142;7.768;2023-10-13T01:56:05;12.33;;;5.77;;
5867;SDS011;2960;49.142;7.768;2023-10-13T01:58:35;12.97;;;6.27;;
5867;SDS011;2960;49.142;7.768;2023-10-13T02:01:07;11.90;;;5.50;;
5867;SDS011;2960;49.142;7.768;2023-10-13T02:03:34;14.50;;;6.00;;
5867;SDS011;2960;49.142;7.768;2023-10-13T02:06:06;13.80;;;6.20;;
5867;SDS011;2960;49.142;7.768;2023-10-13T02:08:35;13.80;;;6.10;;
5867;SDS011;2960;49.142;7.768;2023-10-13T02:11:09;13.10;;;6.00;;
5867;SDS011;2960;49.142;7.768;2023-10-13T02:13:36;13.43;;;6.13;;
5867;SDS011;2960;49.142;7.768;2023-10-13T02:16:13;12.83;;;5.83;;
5867;SDS011;2960;49.142;7.768;2023-10-13T02:18:43;12.40;;;5.37;;
5867;SDS011;2960;49.142;7.768;2023-10-13T02:21:15;13.30;;;5.90;;
5867;SDS011;2960;49.142;7.768;2023-10-13T02:23:41;12.43;;;5.80;;
5867;SDS011;2960;49.142;7.768;2023-10-13T02:26:11;15.87;;;5.90;;
5867;SDS011;2960;49.142;7.768;2023-10-13T02:28:40;13.30;;;6.03;;
5867;SDS011;2960;49.142;7.768;2023-10-13T02:31:09;13.63;;;6.17;;
5867;SDS011;2960;49.142;7.768;2023-10-13T02:33:36;15.40;;;5.60;;
5867;SDS011;2960;49.142;7.768;2023-10-13T02:36:10;12.77;;;5.90;;
5867;SDS011;2960;49.142;7.768;2023-10-13T02:38:38;15.10;;;6.27;;
5867;SDS011;2960;49.142;7.768;2023-10-13T02:41:13;12.07;;;5.70;;
5867;SDS011;2960;49.142;7.768;2023-10-13T02:43:45;13.77;;;6.00;;
5867;SDS011;2960;49.142;7.768;2023-10-13T02:46:11;13.57;;;5.73;;
5867;SDS011;2960;49.142;7.768;2023-10-13T02:48:41;12.40;;;5.40;;
5867;SDS011;2960;49.142;7.768;2023-10-13T02:51:09;13.10;;;5.80;;
5867;SDS011;2960;49.142;7.768;2023-10-13T02:53:47;13.50;;;5.77;;
5867;SDS011;2960;49.142;7.768;2023-10-13T02:56:16;13.40;;;6.30;;
5867;SDS011;2960;49.142;7.768;2023-10-13T02:58:46;12.87;;;6.00;;
5867;SDS011;2960;49.142;7.768;2023-10-13T03:01:18;13.63;;;5.83;;
5867;SDS011;2960;49.142;7.768;2023-10-13T03:03:45;13.60;;;5.57;;
5867;SDS011;2960;49.142;7.768;2023-10-13T03:06:17;12.77;;;5.87;;
5867;SDS011;2960;49.142;7.768;2023-10-13T03:08:47;12.20;;;5.57;;
5867;SDS011;2960;49.142;7.768;2023-10-13T03:11:16;13.70;;;5.93;;
5867;SDS011;2960;49.142;7.768;2023-10-13T03:13:46;12.90;;;6.00;;
5867;SDS011;2960;49.142;7.768;2023-10-13T03:16:17;12.80;;;5.90;;
5867;SDS011;2960;49.142;7.768;2023-10-13T03:18:46;12.50;;;5.50;;
5867;SDS011;2960;49.142;7.768;2023-10-13T03:21:23;14.30;;;5.73;;
5867;SDS011;2960;49.142;7.768;2023-10-13T03:23:56;12.03;;;5.33;;
5867;SDS011;2960;49.142;7.768;2023-10-13T03:26:33;12.50;;;5.57;;
5867;SDS011;2960;49.142;7.768;2023-10-13T03:29:09;13.07;;;5.57;;
5867;SDS011;2960;49.142;7.768;2023-10-13T03:31:39;13.50;;;6.30;;
5867;SDS011;2960;49.142;7.768;2023-10-13T03:34:10;13.07;;;6.10;;
5867;SDS011;2960;49.142;7.768;2023-10-13T03:36:37;12.07;;;5.50;;
5867;SDS011;2960;49.142;7.768;2023-10-13T03:39:31;12.50;;;5.20;;
5867;SDS011;2960;49.142;7.768;2023-10-13T03:41:59;13.33;;;5.43;;
5867;SDS011;2960;49.142;7.768;2023-10-13T03:44:30;12.67;;;5.60;;
5867;SDS011;2960;49.142;7.768;2023-10-13T03:47:03;13.67;;;5.97;;
5867;SDS011;2960;49.142;7.768;2023-10-13T03:49:43;12.10;;;5.23;;
5867;SDS011;2960;49.142;7.768;2023-10-13T03:52:16;12.70;;;5.40;;
5867;SDS011;2960;49.142;7.768;2023-10-13T03:54:47;12.57;;;5.43;;
5867;SDS011;2960;49.142;7.768;2023-10-13T03:57:17;13.40;;;5.50;;
5867;SDS011;2960;49.142;7.768;2023-10-13T03:59:46;12.90;;;5.57;;
5867;SDS011;2960;49.142;7.768;2023-10-13T04:02:14;12.13;;;5.33;;
5867;SDS011;2960;49.142;7.768;2023-10-13T04:04:46;12.57;;;5.17;;
5867;SDS011;2960;49.142;7.768;2023-10-13T04:07:20;14.00;;;5.17;;
5867;SDS011;2960;49.142;7.768;2023-10-13T04:10:01;12.50;;;5.30;;
5867;SDS011;2960;49.142;7.768;2023-10-13T04:12:47;14.23;;;6.27;;
5867;SDS011;2960;49.142;7.768;2023-10-13T04:15:31;14.07;;;5.70;;
5867;SDS011;2960;49.142;7.768;2023-10-13T04:18:07;15.23;;;6.23;;
5867;SDS011;2960;49.142;7.768;2023-10-13T04:20:55;14.90;;;6.80;;
5867;SDS011;2960;49.142;7.768;2023-10-13T04:23:33;13.03;;;5.73;;
5867;SDS011;2960;49.142;7.768;2023-10-13T04:26:21;16.70;;;6.57;;
5867;SDS011;2960;49.142;7.768;2023-10-13T04:28:50;14.93;;;6.23;;
5867;SDS011;2960;49.142;7.768;2023-10-13T04:31:17;14.67;;;6.57;;
5867;SDS011;2960;49.142;7.768;2023-10-13T04:33:58;15.13;;;5.97;;
5867;SDS011;2960;49.142;7.768;2023-10-13T04:36:27;14.10;;;5.70;;
5867;SDS011;2960;49.142;7.768;2023-10-13T04:39:10;13.77;;;5.80;;
5867;SDS011;2960;49.142;7.768;2023-10-13T04:41:42;15.83;;;5.77;;
5867;SDS011;2960;49.142;7.768;2023-10-13T04:44:25;13.93;;;5.53;;
5867;SDS011;2960;49.142;7.768;2023-10-13T04:47:18;13.10;;;5.83;;
5867;SDS011;2960;49.142;7.768;2023-10-13T04:49:46;13.70;;;5.77;;
5867;SDS011;2960;49.142;7.768;2023-10-13T04:52:18;14.43;;;5.63;;
5867;SDS011;2960;49.142;7.768;2023-10-13T04:55:03;13.33;;;5.57;;
5867;SDS011;2960;49.142;7.768;2023-10-13T04:58:08;12.60;;;5.30;;
5867;SDS011;2960;49.142;7.768;2023-10-13T05:00:41;13.63;;;5.70;;
5867;SDS011;2960;49.142;7.768;2023-10-13T05:03:37;13.63;;;5.60;;
5867;SDS011;2960;49.142;7.768;2023-10-13T05:06:33;14.13;;;5.20;;
5867;SDS011;2960;49.142;7.768;2023-10-13T05:09:18;11.90;;;5.00;;
5867;SDS011;2960;49.142;7.768;2023-10-13T05:12:02;12.17;;;4.60;;
5867;SDS011;2960;49.142;7.768;2023-10-13T05:14:47;12.20;;;5.00;;
5867;SDS011;2960;49.142;7.768;2023-10-13T05:17:33;11.80;;;5.10;;
5867;SDS011;2960;49.142;7.768;2023-10-13T05:20:17;12.83;;;5.03;;
5867;SDS011;2960;49.142;7.768;2023-10-13T05:23:02;12.10;;;4.90;;
5867;SDS011;2960;49.142;7.768;2023-10-13T05:25:47;11.90;;;5.13;;
5867;SDS011;2960;49.142;7.768;2023-10-13T05:28:31;12.80;;;5.37;;
5867;SDS011;2960;49.142;7.768;2023-10-13T05:31:16;12.13;;;4.70;;
5867;SDS011;2960;49.142;7.768;2023-10-13T05:34:04;11.97;;;5.13;;
5867;SDS011;2960;49.142;7.768;2023-10-13T05:36:49;11.90;;;5.13;;
5867;SDS011;2960;49.142;7.768;2023-10-13T05:39:34;13.60;;;4.90;;
5867;SDS011;2960;49.142;7.768;2023-10-13T05:42:18;14.63;;;5.03;;
5867;SDS011;2960;49.142;7.768;2023-10-13T05:45:03;12.17;;;5.30;;
5867;SDS011;2960;49.142;7.768;2023-10-13T05:48:03;13.60;;;4.80;;
5867;SDS011;2960;49.142;7.768;2023-10-13T05:50:39;13.40;;;4.93;;
5867;SDS011;2960;49.142;7.768;2023-10-13T05:53:32;12.13;;;5.10;;
5867;SDS011;2960;49.142;7.768;2023-10-13T05:56:16;11.80;;;4.80;;
5867;SDS011;2960;49.142;7.768;2023-10-13T05:59:01;11.83;;;4.70;;
5867;SDS011;2960;49.142;7.768;2023-10-13T06:01:45;12.53;;;4.80;;
5867;SDS011;2960;49.142;7.768;2023-10-13T06:04:31;12.40;;;4.70;;
5867;SDS011;2960;49.142;7.768;2023-10-13T06:07:16;12.50;;;5.30;;
5867;SDS011;2960;49.142;7.768;2023-10-13T06:10:01;14.20;;;5.30;;
5867;SDS011;2960;49.142;7.768;2023-10-13T06:12:45;11.90;;;4.80;;
5867;SDS011;2960;49.142;7.768;2023-10-13T06:15:35;12.77;;;5.10;;
5867;SDS011;2960;49.142;7.768;2023-10-13T06:18:20;13.17;;;5.07;;
5867;SDS011;2960;49.142;7.768;2023-10-13T06:21:06;13.50;;;5.03;;
5867;SDS011;2960;49.142;7.768;2023-10-13T06:23:51;11.97;;;5.10;;
5867;SDS011;2960;49.142;7.768;2023-10-13T06:26:35;13.50;;;5.43;;
5867;SDS011;2960;49.142;7.768;2023-10-13T06:29:20;12.07;;;5.00;;
5867;SDS011;2960;49.142;7.768;2023-10-13T06:31:47;11.67;;;4.83;;
5867;SDS011;2960;49.142;7.768;2023-10-13T06:34:14;12.20;;;5.00;;
5867;SDS011;2960;49.142;7.768;2023-10-13T06:36:42;12.30;;;4.93;;
5867;SDS011;2960;49.142;7.768;2023-10-13T06:39:11;11.77;;;4.83;;
5867;SDS011;2960;49.142;7.768;2023-10-13T06:42:00;12.10;;;4.60;;
5867;SDS011;2960;49.142;7.768;2023-10-13T06:44:28;12.40;;;5.33;;
5867;SDS011;2960;49.142;7.768;2023-10-13T06:46:57;12.93;;;5.57;;
5867;SDS011;2960;49.142;7.768;2023-10-13T06:49:29;12.07;;;5.03;;
5867;SDS011;2960;49.142;7.768;2023-10-13T06:52:02;11.50;;;5.00;;
5867;SDS011;2960;49.142;7.768;2023-10-13T06:54:31;12.60;;;5.63;;
5867;SDS011;2960;49.142;7.768;2023-10-13T06:57:00;13.10;;;5.37;;
5867;SDS011;2960;49.142;7.768;2023-10-13T06:59:29;11.80;;;4.70;;
5867;SDS011;2960;49.142;7.768;2023-10-13T07:01:58;13.47;;;5.00;;
5867;SDS011;2960;49.142;7.768;2023-10-13T07:04:29;11.87;;;5.07;;
5867;SDS011;2960;49.142;7.768;2023-10-13T07:06:56;11.23;;;5.00;;
5867;SDS011;2960;49.142;7.768;2023-10-13T07:09:27;12.30;;;4.90;;
5867;SDS011;2960;49.142;7.768;2023-10-13T07:12:06;12.00;;;5.10;;
5867;SDS011;2960;49.142;7.768;2023-10-13T07:14:44;12.43;;;5.10;;
5867;SDS011;2960;49.142;7.768;2023-10-13T07:17:17;13.40;;;5.23;;
5867;SDS011;2960;49.142;7.768;2023-10-13T07:19:49;12.43;;;5.50;;
5867;SDS011;2960;49.142;7.768;2023-10-13T07:22:21;11.47;;;4.83;;
5867;SDS011;2960;49.142;7.768;2023-10-13T07:24:52;12.00;;;5.10;;
5867;SDS011;2960;49.142;7.768;2023-10-13T07:27:22;12.10;;;4.97;;
5867;SDS011;2960;49.142;7.768;2023-10-13T07:29:50;12.23;;;5.27;;
5867;SDS011;2960;49.142;7.768;2023-10-13T07:32:31;11.57;;;4.97;;
5867;SDS011;2960;49.142;7.768;2023-10-13T07:34:59;12.10;;;5.30;;
5867;SDS011;2960;49.142;7.768;2023-10-13T07:37:36;11.97;;;5.33;;
5867;SDS011;2960;49.142;7.768;2023-10-13T07:40:08;12.17;;;5.40;;
5867;SDS011;2960;49.142;7.768;2023-10-13T07:43:00;12.27;;;5.10;;
5867;SDS011;2960;49.142;7.768;2023-10-13T07:45:35;11.63;;;4.87;;
5867;SDS011;2960;49.142;7.768;2023-10-13T07:48:03;12.00;;;5.13;;
5867;SDS011;2960;49.142;7.768;2023-10-13T07:50:37;11.70;;;5.13;;
5867;SDS011;2960;49.142;7.768;2023-10-13T07:53:05;11.90;;;5.40;;
5867;SDS011;2960;49.142;7.768;2023-10-13T07:55:45;12.70;;;5.20;;
5867;SDS011;2960;49.142;7.768;2023-10-13T07:58:13;11.77;;;4.63;;
5867;SDS011;2960;49.142;7.768;2023-10-13T08:00:40;11.70;;;4.93;;
5867;SDS011;2960;49.142;7.768;2023-10-13T08:03:19;11.50;;;4.90;;
5867;SDS011;2960;49.142;7.768;2023-10-13T08:06:00;11.27;;;4.80;;
5867;SDS011;2960;49.142;7.768;2023-10-13T08:08:32;11.43;;;4.87;;
5867;SDS011;2960;49.142;7.768;2023-10-13T08:11:05;12.07;;;4.80;;
5867;SDS011;2960;49.142;7.768;2023-10-13T08:13:46;12.20;;;4.77;;
5867;SDS011;2960;49.142;7.768;2023-10-13T08:16:19;11.77;;;5.20;;
5867;SDS011;2960;49.142;7.768;2023-10-13T08:18:47;12.13;;;5.00;;
5867;SDS011;2960;49.142;7.768;2023-10-13T08:21:15;12.40;;;5.30;;
5867;SDS011;2960;49.142;7.768;2023-10-13T08:23:48;12.50;;;5.30;;
5867;SDS011;2960;49.142;7.768;2023-10-13T08:26:32;12.07;;;5.20;;
5867;SDS011;2960;49.142;7.768;2023-10-13T08:29:19;13.90;;;5.77;;
5867;SDS011;2960;49.142;7.768;2023-10-13T08:32:05;12.70;;;5.73;;
5867;SDS011;2960;49.142;7.768;2023-10-13T08:35:00;13.27;;;5.70;;
5867;SDS011;2960;49.142;7.768;2023-10-13T08:37:47;12.90;;;5.40;;
5867;SDS011;2960;49.142;7.768;2023-10-13T08:40:26;12.60;;;5.37;;
5867;SDS011;2960;49.142;7.768;2023-10-13T08:43:32;12.37;;;5.10;;
5867;SDS011;2960;49.142;7.768;2023-10-13T08:46:08;12.60;;;5.40;;
5867;SDS011;2960;49.142;7.768;2023-10-13T08:48:52;12.77;;;5.47;;
5867;SDS011;2960;49.142;7.768;2023-10-13T08:51:31;14.60;;;5.30;;
5867;SDS011;2960;49.142;7.768;2023-10-13T08:54:14;11.93;;;5.10;;
5867;SDS011;2960;49.142;7.768;2023-10-13T08:56:58;16.70;;;6.07;;
5867;SDS011;2960;49.142;7.768;2023-10-13T08:59:46;13.57;;;5.77;;
5867;SDS011;2960;49.142;7.768;2023-10-13T09:02:20;12.70;;;5.47;;
5867;SDS011;2960;49.142;7.768;2023-10-13T09:04:51;12.90;;;6.17;;
5867;SDS011;2960;49.142;7.768;2023-10-13T09:07:43;14.10;;;6.43;;
5867;SDS011;2960;49.142;7.768;2023-10-13T09:10:12;13.87;;;7.17;;
5867;SDS011;2960;49.142;7.768;2023-10-13T09:12:58;14.50;;;6.60;;
5867;SDS011;2960;49.142;7.768;2023-10-13T09:15:30;13.10;;;6.60;;
5867;SDS011;2960;49.142;7.768;2023-10-13T09:18:22;13.57;;;6.87;;
5867;SDS011;2960;49.142;7.768;2023-10-13T09:21:08;15.37;;;7.60;;
5867;SDS011;2960;49.142;7.768;2023-10-13T09:23:55;15.43;;;7.57;;
5867;SDS011;2960;49.142;7.768;2023-10-13T09:26:49;15.13;;;7.30;;
5867;SDS011;2960;49.142;7.768;2023-10-13T09:29:21;14.50;;;7.10;;
5867;SDS011;2960;49.142;7.768;2023-10-13T09:31:58;15.63;;;7.20;;
5867;SDS011;2960;49.142;7.768;2023-10-13T09:34:28;15.00;;;6.90;;
5867;SDS011;2960;49.142;7.768;2023-10-13T09:36:57;14.77;;;7.20;;
5867;SDS011;2960;49.142;7.768;2023-10-13T09:39:28;14.83;;;7.47;;
5867;SDS011;2960;49.142;7.768;2023-10-13T09:42:11;14.23;;;7.03;;
5867;SDS011;2960;49.142;7.768;2023-10-13T09:44:38;16.17;;;6.53;;
5867;SDS011;2960;49.142;7.768;2023-10-13T09:47:08;17.07;;;6.67;;
5867;SDS011;2960;49.142;7.768;2023-10-13T09:49:43;13.90;;;7.20;;
5867;SDS011;2960;49.142;7.768;2023-10-13T09:52:15;15.03;;;6.83;;
5867;SDS011;2960;49.142;7.768;2023-10-13T09:54:55;15.00;;;6.97;;
5867;SDS011;2960;49.142;7.768;2023-10-13T09:57:36;13.90;;;6.50;;
5867;SDS011;2960;49.142;7.768;2023-10-13T10:00:11;14.10;;;6.83;;
5867;SDS011;2960;49.142;7.768;2023-10-13T10:02:57;13.37;;;7.10;;
5867;SDS011;2960;49.142;7.768;2023-10-13T10:05:29;13.93;;;7.33;;
5867;SDS011;2960;49.142;7.768;2023-10-13T10:07:59;12.90;;;7.23;;
5867;SDS011;2960;49.142;7.768;2023-10-13T10:10:27;14.43;;;7.47;;
5867;SDS011;2960;49.142;7.768;2023-10-13T10:13:15;14.37;;;7.00;;
5867;SDS011;2960;49.142;7.768;2023-10-13T10:15:55;15.63;;;7.87;;
5867;SDS011;2960;49.142;7.768;2023-10-13T10:18:28;13.90;;;7.30;;
5867;SDS011;2960;49.142;7.768;2023-10-13T10:21:02;13.80;;;7.10;;
5867;SDS011;2960;49.142;7.768;2023-10-13T10:23:33;15.40;;;7.90;;
5867;SDS011;2960;49.142;7.768;2023-10-13T10:26:10;13.77;;;6.90;;
5867;SDS011;2960;49.142;7.768;2023-10-13T10:28:42;13.00;;;6.90;;
5867;SDS011;2960;49.142;7.768;2023-10-13T10:31:10;13.70;;;6.73;;
5867;SDS011;2960;49.142;7.768;2023-10-13T10:33:40;15.43;;;7.53;;
5867;SDS011;2960;49.142;7.768;2023-10-13T10:36:08;14.40;;;7.27;;
5867;SDS011;2960;49.142;7.768;2023-10-13T10:38:51;13.17;;;6.70;;
5867;SDS011;2960;49.142;7.768;2023-10-13T10:41:25;14.30;;;7.60;;
5867;SDS011;2960;49.142;7.768;2023-10-13T10:44:10;13.27;;;6.63;;
5867;SDS011;2960;49.142;7.768;2023-10-13T10:46:49;14.50;;;7.30;;
5867;SDS011;2960;49.142;7.768;2023-10-13T10:49:23;13.77;;;7.10;;
5867;SDS011;2960;49.142;7.768;2023-10-13T10:51:57;13.70;;;7.00;;
5867;SDS011;2960;49.142;7.768;2023-10-13T10:54:29;14.77;;;6.83;;
5867;SDS011;2960;49.142;7.768;2023-10-13T10:56:58;13.90;;;7.03;;
5867;SDS011;2960;49.142;7.768;2023-10-13T10:59:38;14.00;;;7.40;;
5867;SDS011;2960;49.142;7.768;2023-10-13T11:02:06;13.43;;;6.90;;
5867;SDS011;2960;49.142;7.768;2023-10-13T11:04:34;14.40;;;7.33;;
5867;SDS011;2960;49.142;7.768;2023-10-13T11:07:05;15.30;;;7.50;;
5867;SDS011;2960;49.142;7.768;2023-10-13T11:09:34;15.40;;;7.87;;
5867;SDS011;2960;49.142;7.768;2023-10-13T11:12:11;14.70;;;7.07;;
5867;SDS011;2960;49.142;7.768;2023-10-13T11:14:59;14.40;;;7.50;;
5867;SDS011;2960;49.142;7.768;2023-10-13T11:17:30;14.80;;;7.40;;
5867;SDS011;2960;49.142;7.768;2023-10-13T11:20:10;14.90;;;7.27;;
5867;SDS011;2960;49.142;7.768;2023-10-13T11:22:45;15.30;;;7.60;;
5867;SDS011;2960;49.142;7.768;2023-10-13T11:25:22;13.90;;;7.40;;
5867;SDS011;2960;49.142;7.768;2023-10-13T11:28:08;14.00;;;7.70;;
5867;SDS011;2960;49.142;7.768;2023-10-13T11:30:44;14.60;;;7.03;;
5867;SDS011;2960;49.142;7.768;2023-10-13T11:33:14;15.30;;;7.87;;
5867;SDS011;2960;49.142;7.768;2023-10-13T11:35:46;13.13;;;6.57;;
5867;SDS011;2960;49.142;7.768;2023-10-13T11:38:23;14.60;;;7.50;;
5867;SDS011;2960;49.142;7.768;2023-10-13T11:40:52;16.50;;;7.67;;
5867;SDS011;2960;49.142;7.768;2023-10-13T11:43:37;14.33;;;7.20;;
5867;SDS011;2960;49.142;7.768;2023-10-13T11:46:19;15.40;;;7.43;;
5867;SDS011;2960;49.142;7.768;2023-10-13T11:49:06;14.90;;;7.33;;
5867;SDS011;2960;49.142;7.768;2023-10-13T11:51:43;14.23;;;7.07;;
5867;SDS011;2960;49.142;7.768;2023-10-13T11:54:14;14.83;;;7.50;;
5867;SDS011;2960;49.142;7.768;2023-10-13T11:56:40;17.10;;;7.60;;
5867;SDS011;2960;49.142;7.768;2023-10-13T11:59:07;14.90;;;6.90;;
5867;SDS011;2960;49.142;7.768;2023-10-13T12:01:43;14.40;;;7.10;;
5867;SDS011;2960;49.142;7.768;2023-10-13T12:04:28;16.33;;;7.57;;
5867;SDS011;2960;49.142;7.768;2023-10-13T12:07:09;15.53;;;7.70;;
5867;SDS011;2960;49.142;7.768;2023-10-13T12:09:47;15.87;;;7.37;;
5867;SDS011;2960;49.142;7.768;2023-10-13T12:12:28;15.20;;;7.60;;
5867;SDS011;2960;49.142;7.768;2023-10-13T12:15:06;15.00;;;7.10;;
5867;SDS011;2960;49.142;7.768;2023-10-13T12:17:41;15.00;;;6.67;;
5867;SDS011;2960;49.142;7.768;2023-10-13T12:20:10;15.03;;;7.27;;
5867;SDS011;2960;49.142;7.768;2023-10-13T12:22:43;14.50;;;7.20;;
5867;SDS011;2960;49.142;7.768;2023-10-13T12:25:20;15.13;;;6.87;;
5867;SDS011;2960;49.142;7.768;2023-10-13T12:27:59;13.60;;;7.33;;
5867;SDS011;2960;49.142;7.768;2023-10-13T12:30:38;12.90;;;6.63;;
5867;SDS011;2960;49.142;7.768;2023-10-13T12:33:16;13.40;;;6.40;;
5867;SDS011;2960;49.142;7.768;2023-10-13T12:35:49;13.50;;;6.73;;
5867;SDS011;2960;49.142;7.768;2023-10-13T12:38:31;14.10;;;6.73;;
5867;SDS011;2960;49.142;7.768;2023-10-13T12:41:04;14.00;;;6.83;;
5867;SDS011;2960;49.142;7.768;2023-10-13T12:43:49;16.57;;;6.90;;
5867;SDS011;2960;49.142;7.768;2023-10-13T12:46:34;14.97;;;7.23;;
5867;SDS011;2960;49.142;7.768;2023-10-13T12:49:19;13.60;;;6.40;;
5867;SDS011;2960;49.142;7.768;2023-10-13T12:52:04;15.60;;;6.87;;
5867;SDS011;2960;49.142;7.768;2023-10-13T12:54:41;14.77;;;7.37;;
5867;SDS011;2960;49.142;7.768;2023-10-13T12:57:11;16.23;;;6.93;;
5867;SDS011;2960;49.142;7.768;2023-10-13T12:59:39;15.07;;;7.70;;
5867;SDS011;2960;49.142;7.768;2023-10-13T13:02:06;15.57;;;7.43;;
5867;SDS011;2960;49.142;7.768;2023-10-13T13:04:41;15.20;;;7.10;;
5867;SDS011;2960;49.142;7.768;2023-10-13T13:07:09;13.63;;;6.70;;
5867;SDS011;2960;49.142;7.768;2023-10-13T13:09:38;15.33;;;6.70;;
5867;SDS011;2960;49.142;7.768;2023-10-13T13:12:07;13.20;;;6.40;;
5867;SDS011;2960;49.142;7.768;2023-10-13T13:14:37;13.93;;;6.47;;
5867;SDS011;2960;49.142;7.768;2023-10-13T13:17:06;14.97;;;7.20;;
5867;SDS011;2960;49.142;7.768;2023-10-13T13:19:33;12.30;;;6.10;;
5867;SDS011;2960;49.142;7.768;2023-10-13T13:22:05;13.43;;;6.33;;
5867;SDS011;2960;49.142;7.768;2023-10-13T13:24:37;14.47;;;6.70;;
5867;SDS011;2960;49.142;7.768;2023-10-13T13:27:08;12.50;;;6.10;;
5867;SDS011;2960;49.142;7.768;2023-10-13T13:29:39;13.47;;;6.23;;
5867;SDS011;2960;49.142;7.768;2023-10-13T13:32:07;12.00;;;5.90;;
5867;SDS011;2960;49.142;7.768;2023-10-13T13:34:44;12.13;;;6.40;;
5867;SDS011;2960;49.142;7.768;2023-10-13T13:37:20;12.20;;;6.00;;
5867;SDS011;2960;49.142;7.768;2023-10-13T13:39:48;13.30;;;6.37;;
5867;SDS011;2960;49.142;7.768;2023-10-13T13:42:18;12.50;;;5.73;;
5867;SDS011;2960;49.142;7.768;2023-10-13T13:44:45;14.03;;;5.97;;
5867;SDS011;2960;49.142;7.768;2023-10-13T13:47:12;12.10;;;6.10;;
5867;SDS011;2960;49.142;7.768;2023-10-13T13:49:39;13.33;;;5.40;;
5867;SDS011;2960;49.142;7.768;2023-10-13T13:52:16;12.13;;;5.70;;
5867;SDS011;2960;49.142;7.768;2023-10-13T13:54:48;12.70;;;5.93;;
5867;SDS011;2960;49.142;7.768;2023-10-13T13:57:15;12.40;;;5.87;;
5867;SDS011;2960;49.142;7.768;2023-10-13T13:59:42;12.20;;;5.90;;
5867;SDS011;2960;49.142;7.768;2023-10-13T14:02:10;12.13;;;6.00;;
5867;SDS011;2960;49.142;7.768;2023-10-13T14:04:45;12.90;;;6.30;;
5867;SDS011;2960;49.142;7.768;2023-10-13T14:07:15;11.87;;;6.03;;
5867;SDS011;2960;49.142;7.768;2023-10-13T14:09:44;12.23;;;5.33;;
5867;SDS011;2960;49.142;7.768;2023-10-13T14:12:17;11.87;;;4.87;;
5867;SDS011;2960;49.142;7.768;2023-10-13T14:15:06;12.23;;;5.57;;
5867;SDS011;2960;49.142;7.768;2023-10-13T14:17:45;13.70;;;6.10;;
5867;SDS011;2960;49.142;7.768;2023-10-13T14:20:14;13.20;;;6.40;;
5867;SDS011;2960;49.142;7.768;2023-10-13T14:22:44;17.07;;;6.33;;
5867;SDS011;2960;49.142;7.768;2023-10-13T14:25:12;12.13;;;5.50;;
5867;SDS011;2960;49.142;7.768;2023-10-13T14:27:42;12.83;;;5.63;;
5867;SDS011;2960;49.142;7.768;2023-10-13T14:30:09;12.40;;;5.80;;
5867;SDS011;2960;49.142;7.768;2023-10-13T14:32:44;12.07;;;5.53;;
5867;SDS011;2960;49.142;7.768;2023-10-13T14:35:11;12.10;;;5.23;;
5867;SDS011;2960;49.142;7.768;2023-10-13T14:37:40;14.67;;;6.47;;
5867;SDS011;2960;49.142;7.768;2023-10-13T14:40:08;13.70;;;5.90;;
5867;SDS011;2960;49.142;7.768;2023-10-13T14:42:38;13.20;;;6.00;;
5867;SDS011;2960;49.142;7.768;2023-10-13T14:45:08;12.13;;;5.90;;
5867;SDS011;2960;49.142;7.768;2023-10-13T14:47:38;13.10;;;6.00;;
5867;SDS011;2960;49.142;7.768;2023-10-13T14:50:06;12.43;;;5.30;;
5867;SDS011;2960;49.142;7.768;2023-10-13T14:52:39;12.13;;;5.13;;
5867;SDS011;2960;49.142;7.768;2023-10-13T14:55:08;14.00;;;5.87;;
5867;SDS011;2960;49.142;7.768;2023-10-13T14:57:44;15.10;;;6.47;;
5867;SDS011;2960;49.142;7.768;2023-10-13T15:00:14;13.40;;;6.03;;
5867;SDS011;2960;49.142;7.768;2023-10-13T15:02:50;12.57;;;5.43;;
5867;SDS011;2960;49.142;7.768;2023-10-13T15:05:18;12.30;;;5.30;;
5867;SDS011;2960;49.142;7.768;2023-10-13T15:07:45;12.70;;;5.50;;
5867;SDS011;2960;49.142;7.768;2023-10-13T15:10:12;11.87;;;5.33;;
5867;SDS011;2960;49.142;7.768;2023-10-13T15:12:43;11.77;;;5.30;;
5867;SDS011;2960;49.142;7.768;2023-10-13T15:15:10;11.67;;;5.10;;
5867;SDS011;2960;49.142;7.768;2023-10-13T15:17:42;11.93;;;5.57;;
5867;SDS011;2960;49.142;7.768;2023-10-13T15:20:09;11.70;;;4.97;;
5867;SDS011;2960;49.142;7.768;2023-10-13T15:22:42;11.90;;;5.30;;
5867;SDS011;2960;49.142;7.768;2023-10-13T15:25:09;12.17;;;5.57;;
5867;SDS011;2960;49.142;7.768;2023-10-13T15:27:46;12.30;;;5.50;;
5867;SDS011;2960;49.142;7.768;2023-10-13T15:30:20;12.60;;;5.73;;
5867;SDS011;2960;49.142;7.768;2023-10-13T15:32:53;15.13;;;7.20;;
5867;SDS011;2960;49.142;7.768;2023-10-13T15:35:22;13.17;;;6.50;;
5867;SDS011;2960;49.142;7.768;2023-10-13T15:37:53;15.13;;;6.60;;
5867;SDS011;2960;49.142;7.768;2023-10-13T15:40:21;13.47;;;6.20;;
5867;SDS011;2960;49.142;7.768;2023-10-13T15:42:49;14.83;;;6.60;;
5867;SDS011;2960;49.142;7.768;2023-10-13T15:45:16;14.50;;;6.93;;
5867;SDS011;2960;49.142;7.768;2023-10-13T15:47:44;14.60;;;7.33;;